sensor_id;sensor_type;location;lat;lon;timestamp;P1;durP1;ratioP1;P2;durP2;ratioP2
65031;SDS011;51593;55.714;37.436;2022-08-30T00:02:16;17.58;;;8.10;;
65031;SDS011;51593;55.714;37.436;2022-08-30T00:04:41;16.98;;;8.27;;
65031;SDS011;51593;55.714;37.436;2022-08-30T00:07:07;16.10;;;8.45;;
65031;SDS011;51593;55.714;37.436;2022-08-30T00:10:11;21.65;;;8.45;;
65031;SDS011;51593;55.714;37.436;2022-08-30T00:12:37;18.20;;;8.65;;
65031;SDS011;51593;55.714;37.436;2022-08-30T00:15:04;18.73;;;8.88;;
65031;SDS011;51593;55.714;37.436;2022-08-30T00:17:31;19.65;;;8.95;;
65031;SDS011;51593;55.714;37.436;2022-08-30T00:19:57;21.83;;;8.23;;
65031;SDS011;51593;55.714;37.436;2022-08-30T00:22:23;19.95;;;8.50;;
65031;SDS011;51593;55.714;37.436;2022-08-30T00:24:49;20.92;;;9.27;;
65031;SDS011;51593;55.714;37.436;2022-08-30T00:27:15;22.33;;;8.38;;
65031;SDS011;51593;55.714;37.436;2022-08-30T00:29:41;17.25;;;8.32;;
65031;SDS011;51593;55.714;37.436;2022-08-30T00:32:07;17.27;;;8.00;;
65031;SDS011;51593;55.714;37.436;2022-08-30T00:34:32;18.48;;;8.68;;
65031;SDS011;51593;55.714;37.436;2022-08-30T00:36:59;15.60;;;8.00;;
65031;SDS011;51593;55.714;37.436;2022-08-30T00:39:25;19.10;;;8.07;;
65031;SDS011;51593;55.714;37.436;2022-08-30T00:41:51;18.85;;;8.18;;
65031;SDS011;51593;55.714;37.436;2022-08-30T00:44:17;17.75;;;8.20;;
65031;SDS011;51593;55.714;37.436;2022-08-30T00:46:42;15.73;;;8.27;;
65031;SDS011;51593;55.714;37.436;2022-08-30T00:49:09;18.70;;;8.25;;
65031;SDS011;51593;55.714;37.436;2022-08-30T00:51:36;15.32;;;8.30;;
65031;SDS011;51593;55.714;37.436;2022-08-30T00:54:02;17.00;;;8.35;;
65031;SDS011;51593;55.714;37.436;2022-08-30T00:56:28;21.25;;;8.70;;
65031;SDS011;51593;55.714;37.436;2022-08-30T00:58:56;16.15;;;8.70;;
65031;SDS011;51593;55.714;37.436;2022-08-30T01:01:24;17.95;;;8.15;;
65031;SDS011;51593;55.714;37.436;2022-08-30T01:03:50;20.30;;;8.43;;
65031;SDS011;51593;55.714;37.436;2022-08-30T01:06:17;17.98;;;8.43;;
65031;SDS011;51593;55.714;37.436;2022-08-30T01:08:44;22.33;;;8.48;;
65031;SDS011;51593;55.714;37.436;2022-08-30T01:11:11;19.15;;;8.75;;
65031;SDS011;51593;55.714;37.436;2022-08-30T01:13:38;17.80;;;8.57;;
65031;SDS011;51593;55.714;37.436;2022-08-30T01:16:05;18.83;;;9.00;;
65031;SDS011;51593;55.714;37.436;2022-08-30T01:18:31;22.38;;;8.35;;
65031;SDS011;51593;55.714;37.436;2022-08-30T01:23:32;17.13;;;8.43;;
65031;SDS011;51593;55.714;37.436;2022-08-30T01:25:59;18.52;;;8.38;;
65031;SDS011;51593;55.714;37.436;2022-08-30T01:28:27;16.15;;;8.70;;
65031;SDS011;51593;55.714;37.436;2022-08-30T01:30:54;19.33;;;8.77;;
65031;SDS011;51593;55.714;37.436;2022-08-30T01:33:21;21.15;;;9.13;;
65031;SDS011;51593;55.714;37.436;2022-08-30T01:35:53;19.95;;;9.27;;
65031;SDS011;51593;55.714;37.436;2022-08-30T01:38:21;16.48;;;8.90;;
65031;SDS011;51593;55.714;37.436;2022-08-30T01:40:49;17.83;;;8.75;;
65031;SDS011;51593;55.714;37.436;2022-08-30T01:43:15;16.55;;;8.02;;
65031;SDS011;51593;55.714;37.436;2022-08-30T01:45:42;18.83;;;9.00;;
65031;SDS011;51593;55.714;37.436;2022-08-30T01:48:08;15.57;;;8.07;;
65031;SDS011;51593;55.714;37.436;2022-08-30T01:50:37;22.05;;;9.55;;
65031;SDS011;51593;55.714;37.436;2022-08-30T01:53:04;20.25;;;8.80;;
65031;SDS011;51593;55.714;37.436;2022-08-30T01:55:32;19.65;;;7.57;;
65031;SDS011;51593;55.714;37.436;2022-08-30T01:57:57;16.00;;;8.35;;
65031;SDS011;51593;55.714;37.436;2022-08-30T02:00:23;18.08;;;8.25;;
65031;SDS011;51593;55.714;37.436;2022-08-30T02:02:49;17.08;;;8.02;;
65031;SDS011;51593;55.714;37.436;2022-08-30T02:05:16;19.48;;;9.00;;
65031;SDS011;51593;55.714;37.436;2022-08-30T02:07:41;18.65;;;8.55;;
65031;SDS011;51593;55.714;37.436;2022-08-30T02:10:07;18.50;;;8.35;;
65031;SDS011;51593;55.714;37.436;2022-08-30T02:12:34;18.70;;;8.18;;
65031;SDS011;51593;55.714;37.436;2022-08-30T02:15:00;18.45;;;8.70;;
65031;SDS011;51593;55.714;37.436;2022-08-30T02:17:44;19.08;;;8.93;;
65031;SDS011;51593;55.714;37.436;2022-08-30T02:20:10;20.42;;;9.10;;
65031;SDS011;51593;55.714;37.436;2022-08-30T02:22:36;20.45;;;8.48;;
65031;SDS011;51593;55.714;37.436;2022-08-30T02:25:03;20.67;;;8.68;;
65031;SDS011;51593;55.714;37.436;2022-08-30T02:27:29;20.90;;;8.82;;
65031;SDS011;51593;55.714;37.436;2022-08-30T02:29:55;22.50;;;8.60;;
65031;SDS011;51593;55.714;37.436;2022-08-30T02:32:21;23.05;;;8.65;;
65031;SDS011;51593;55.714;37.436;2022-08-30T02:34:47;22.00;;;8.77;;
65031;SDS011;51593;55.714;37.436;2022-08-30T02:37:14;21.75;;;8.45;;
65031;SDS011;51593;55.714;37.436;2022-08-30T02:39:42;19.67;;;9.00;;
65031;SDS011;51593;55.714;37.436;2022-08-30T02:42:08;20.42;;;9.05;;
65031;SDS011;51593;55.714;37.436;2022-08-30T02:44:34;24.42;;;9.05;;
65031;SDS011;51593;55.714;37.436;2022-08-30T02:47:00;19.92;;;8.60;;
65031;SDS011;51593;55.714;37.436;2022-08-30T02:49:26;23.70;;;9.48;;
65031;SDS011;51593;55.714;37.436;2022-08-30T02:51:51;22.02;;;9.18;;
65031;SDS011;51593;55.714;37.436;2022-08-30T02:54:18;23.30;;;9.60;;
65031;SDS011;51593;55.714;37.436;2022-08-30T02:56:47;22.48;;;9.27;;
65031;SDS011;51593;55.714;37.436;2022-08-30T02:59:14;25.67;;;9.32;;
65031;SDS011;51593;55.714;37.436;2022-08-30T03:01:40;20.23;;;9.70;;
65031;SDS011;51593;55.714;37.436;2022-08-30T03:04:07;34.22;;;10.40;;
65031;SDS011;51593;55.714;37.436;2022-08-30T03:06:33;24.42;;;8.90;;
65031;SDS011;51593;55.714;37.436;2022-08-30T03:08:59;24.33;;;9.35;;
65031;SDS011;51593;55.714;37.436;2022-08-30T03:11:25;25.58;;;9.40;;
65031;SDS011;51593;55.714;37.436;2022-08-30T03:13:51;21.13;;;9.18;;
65031;SDS011;51593;55.714;37.436;2022-08-30T03:16:16;28.48;;;9.68;;
65031;SDS011;51593;55.714;37.436;2022-08-30T03:18:43;19.40;;;8.75;;
65031;SDS011;51593;55.714;37.436;2022-08-30T03:21:10;32.92;;;10.05;;
65031;SDS011;51593;55.714;37.436;2022-08-30T03:23:37;30.35;;;10.85;;
65031;SDS011;51593;55.714;37.436;2022-08-30T03:26:04;24.52;;;9.95;;
65031;SDS011;51593;55.714;37.436;2022-08-30T03:28:30;38.17;;;10.68;;
65031;SDS011;51593;55.714;37.436;2022-08-30T03:30:56;31.20;;;10.93;;
65031;SDS011;51593;55.714;37.436;2022-08-30T03:33:22;24.17;;;10.70;;
65031;SDS011;51593;55.714;37.436;2022-08-30T03:35:48;29.80;;;10.57;;
65031;SDS011;51593;55.714;37.436;2022-08-30T03:38:14;34.28;;;11.15;;
65031;SDS011;51593;55.714;37.436;2022-08-30T03:40:40;37.28;;;10.32;;
65031;SDS011;51593;55.714;37.436;2022-08-30T03:43:06;36.75;;;10.70;;
65031;SDS011;51593;55.714;37.436;2022-08-30T03:45:32;24.15;;;9.98;;
65031;SDS011;51593;55.714;37.436;2022-08-30T03:47:58;24.20;;;9.50;;
65031;SDS011;51593;55.714;37.436;2022-08-30T03:50:27;19.75;;;9.30;;
65031;SDS011;51593;55.714;37.436;2022-08-30T03:52:53;21.05;;;9.68;;
65031;SDS011;51593;55.714;37.436;2022-08-30T03:55:19;17.98;;;8.57;;
65031;SDS011;51593;55.714;37.436;2022-08-30T03:57:45;22.25;;;9.13;;
65031;SDS011;51593;55.714;37.436;2022-08-30T04:00:12;27.27;;;9.95;;
65031;SDS011;51593;55.714;37.436;2022-08-30T04:02:39;17.65;;;9.77;;
65031;SDS011;51593;55.714;37.436;2022-08-30T04:05:06;25.05;;;10.38;;
65031;SDS011;51593;55.714;37.436;2022-08-30T04:07:33;22.23;;;9.80;;
65031;SDS011;51593;55.714;37.436;2022-08-30T04:10:00;19.40;;;9.73;;
65031;SDS011;51593;55.714;37.436;2022-08-30T04:12:26;27.10;;;9.73;;
65031;SDS011;51593;55.714;37.436;2022-08-30T04:14:52;20.80;;;10.30;;
65031;SDS011;51593;55.714;37.436;2022-08-30T04:17:19;19.25;;;10.30;;
65031;SDS011;51593;55.714;37.436;2022-08-30T04:19:44;24.90;;;10.40;;
65031;SDS011;51593;55.714;37.436;2022-08-30T04:22:23;19.50;;;10.60;;
65031;SDS011;51593;55.714;37.436;2022-08-30T04:24:49;21.90;;;10.75;;
65031;SDS011;51593;55.714;37.436;2022-08-30T04:27:15;19.02;;;10.43;;
65031;SDS011;51593;55.714;37.436;2022-08-30T04:29:44;29.52;;;10.50;;
65031;SDS011;51593;55.714;37.436;2022-08-30T04:32:11;19.50;;;10.93;;
65031;SDS011;51593;55.714;37.436;2022-08-30T04:34:37;19.50;;;10.48;;
65031;SDS011;51593;55.714;37.436;2022-08-30T04:37:03;18.38;;;10.63;;
65031;SDS011;51593;55.714;37.436;2022-08-30T04:39:29;19.55;;;10.70;;
65031;SDS011;51593;55.714;37.436;2022-08-30T04:41:55;22.63;;;11.07;;
65031;SDS011;51593;55.714;37.436;2022-08-30T04:44:21;21.63;;;11.80;;
65031;SDS011;51593;55.714;37.436;2022-08-30T04:46:48;25.05;;;11.55;;
65031;SDS011;51593;55.714;37.436;2022-08-30T04:49:13;22.92;;;11.32;;
65031;SDS011;51593;55.714;37.436;2022-08-30T04:51:39;22.95;;;12.10;;
65031;SDS011;51593;55.714;37.436;2022-08-30T04:54:05;19.55;;;11.32;;
65031;SDS011;51593;55.714;37.436;2022-08-30T04:56:31;24.67;;;11.52;;
65031;SDS011;51593;55.714;37.436;2022-08-30T04:58:57;20.77;;;11.88;;
65031;SDS011;51593;55.714;37.436;2022-08-30T05:01:26;22.95;;;12.25;;
65031;SDS011;51593;55.714;37.436;2022-08-30T05:03:54;19.45;;;11.48;;
65031;SDS011;51593;55.714;37.436;2022-08-30T05:06:21;16.38;;;11.45;;
65031;SDS011;51593;55.714;37.436;2022-08-30T05:08:48;22.30;;;11.40;;
65031;SDS011;51593;55.714;37.436;2022-08-30T05:11:15;22.05;;;11.98;;
65031;SDS011;51593;55.714;37.436;2022-08-30T05:13:41;23.25;;;12.25;;
65031;SDS011;51593;55.714;37.436;2022-08-30T05:16:07;21.50;;;11.93;;
65031;SDS011;51593;55.714;37.436;2022-08-30T05:18:35;23.10;;;12.30;;
65031;SDS011;51593;55.714;37.436;2022-08-30T05:21:05;18.75;;;12.35;;
65031;SDS011;51593;55.714;37.436;2022-08-30T05:23:41;24.73;;;11.98;;
65031;SDS011;51593;55.714;37.436;2022-08-30T05:26:09;20.42;;;12.10;;
65031;SDS011;51593;55.714;37.436;2022-08-30T05:28:39;23.98;;;12.65;;
65031;SDS011;51593;55.714;37.436;2022-08-30T05:31:19;23.38;;;12.93;;
65031;SDS011;51593;55.714;37.436;2022-08-30T05:33:47;22.48;;;12.73;;
65031;SDS011;51593;55.714;37.436;2022-08-30T05:36:14;22.00;;;12.43;;
65031;SDS011;51593;55.714;37.436;2022-08-30T05:38:41;21.55;;;12.00;;
65031;SDS011;51593;55.714;37.436;2022-08-30T05:41:06;19.88;;;12.38;;
65031;SDS011;51593;55.714;37.436;2022-08-30T05:43:32;26.73;;;12.70;;
65031;SDS011;51593;55.714;37.436;2022-08-30T05:46:03;23.50;;;12.50;;
65031;SDS011;51593;55.714;37.436;2022-08-30T05:48:38;22.95;;;12.73;;
65031;SDS011;51593;55.714;37.436;2022-08-30T05:51:06;22.95;;;12.23;;
65031;SDS011;51593;55.714;37.436;2022-08-30T05:53:34;23.15;;;12.68;;
65031;SDS011;51593;55.714;37.436;2022-08-30T05:56:00;26.60;;;12.88;;
65031;SDS011;51593;55.714;37.436;2022-08-30T05:58:27;19.48;;;12.57;;
65031;SDS011;51593;55.714;37.436;2022-08-30T06:00:53;31.15;;;13.07;;
65031;SDS011;51593;55.714;37.436;2022-08-30T06:03:19;21.63;;;12.95;;
65031;SDS011;51593;55.714;37.436;2022-08-30T06:05:48;21.95;;;13.25;;
65031;SDS011;51593;55.714;37.436;2022-08-30T06:08:19;22.85;;;12.25;;
65031;SDS011;51593;55.714;37.436;2022-08-30T06:10:45;22.60;;;13.18;;
65031;SDS011;51593;55.714;37.436;2022-08-30T06:13:26;22.35;;;12.43;;
65031;SDS011;51593;55.714;37.436;2022-08-30T06:15:52;24.92;;;13.25;;
65031;SDS011;51593;55.714;37.436;2022-08-30T06:18:18;25.33;;;13.82;;
65031;SDS011;51593;55.714;37.436;2022-08-30T06:20:44;20.02;;;13.20;;
65031;SDS011;51593;55.714;37.436;2022-08-30T06:23:13;23.90;;;13.30;;
65031;SDS011;51593;55.714;37.436;2022-08-30T06:25:42;23.52;;;13.32;;
65031;SDS011;51593;55.714;37.436;2022-08-30T06:28:14;23.77;;;13.82;;
65031;SDS011;51593;55.714;37.436;2022-08-30T06:30:40;19.55;;;12.20;;
65031;SDS011;51593;55.714;37.436;2022-08-30T06:33:07;21.23;;;13.45;;
65031;SDS011;51593;55.714;37.436;2022-08-30T06:35:33;28.05;;;12.70;;
65031;SDS011;51593;55.714;37.436;2022-08-30T06:37:59;24.30;;;12.68;;
65031;SDS011;51593;55.714;37.436;2022-08-30T06:40:25;24.77;;;13.00;;
65031;SDS011;51593;55.714;37.436;2022-08-30T06:42:50;20.23;;;12.05;;
65031;SDS011;51593;55.714;37.436;2022-08-30T06:45:17;24.00;;;12.95;;
65031;SDS011;51593;55.714;37.436;2022-08-30T06:47:44;23.73;;;12.52;;
65031;SDS011;51593;55.714;37.436;2022-08-30T06:50:11;22.58;;;13.32;;
65031;SDS011;51593;55.714;37.436;2022-08-30T06:52:39;27.65;;;12.82;;
65031;SDS011;51593;55.714;37.436;2022-08-30T06:55:07;24.92;;;13.13;;
65031;SDS011;51593;55.714;37.436;2022-08-30T06:57:36;21.75;;;12.05;;
65031;SDS011;51593;55.714;37.436;2022-08-30T07:00:06;19.90;;;12.05;;
65031;SDS011;51593;55.714;37.436;2022-08-30T07:02:35;20.80;;;12.90;;
65031;SDS011;51593;55.714;37.436;2022-08-30T07:05:01;18.23;;;12.30;;
65031;SDS011;51593;55.714;37.436;2022-08-30T07:07:28;19.65;;;12.38;;
65031;SDS011;51593;55.714;37.436;2022-08-30T07:09:54;25.42;;;12.52;;
65031;SDS011;51593;55.714;37.436;2022-08-30T07:12:20;22.17;;;12.27;;
65031;SDS011;51593;55.714;37.436;2022-08-30T07:14:46;23.80;;;12.68;;
65031;SDS011;51593;55.714;37.436;2022-08-30T07:17:12;24.88;;;12.70;;
65031;SDS011;51593;55.714;37.436;2022-08-30T07:19:56;19.33;;;12.50;;
65031;SDS011;51593;55.714;37.436;2022-08-30T07:22:22;23.73;;;13.05;;
65031;SDS011;51593;55.714;37.436;2022-08-30T07:24:48;19.48;;;12.13;;
65031;SDS011;51593;55.714;37.436;2022-08-30T07:27:14;23.88;;;12.18;;
65031;SDS011;51593;55.714;37.436;2022-08-30T07:29:40;20.27;;;12.68;;
65031;SDS011;51593;55.714;37.436;2022-08-30T07:32:06;23.20;;;12.80;;
65031;SDS011;51593;55.714;37.436;2022-08-30T07:34:34;23.48;;;13.05;;
65031;SDS011;51593;55.714;37.436;2022-08-30T07:37:03;21.80;;;12.30;;
65031;SDS011;51593;55.714;37.436;2022-08-30T07:39:29;25.95;;;12.07;;
65031;SDS011;51593;55.714;37.436;2022-08-30T07:41:55;24.45;;;12.65;;
65031;SDS011;51593;55.714;37.436;2022-08-30T07:44:20;22.90;;;12.27;;
65031;SDS011;51593;55.714;37.436;2022-08-30T07:46:46;24.15;;;13.35;;
65031;SDS011;51593;55.714;37.436;2022-08-30T07:49:12;21.63;;;12.68;;
65031;SDS011;51593;55.714;37.436;2022-08-30T07:51:38;22.70;;;12.07;;
65031;SDS011;51593;55.714;37.436;2022-08-30T07:54:06;20.05;;;11.85;;
65031;SDS011;51593;55.714;37.436;2022-08-30T07:56:32;23.27;;;12.43;;
65031;SDS011;51593;55.714;37.436;2022-08-30T07:58:59;20.02;;;11.80;;
65031;SDS011;51593;55.714;37.436;2022-08-30T08:01:25;22.83;;;11.75;;
65031;SDS011;51593;55.714;37.436;2022-08-30T08:03:51;21.65;;;12.63;;
65031;SDS011;51593;55.714;37.436;2022-08-30T08:06:17;24.13;;;12.82;;
65031;SDS011;51593;55.714;37.436;2022-08-30T08:08:44;24.63;;;12.77;;
65031;SDS011;51593;55.714;37.436;2022-08-30T08:11:12;16.45;;;11.13;;
65031;SDS011;51593;55.714;37.436;2022-08-30T08:13:43;17.92;;;11.40;;
65031;SDS011;51593;55.714;37.436;2022-08-30T08:16:10;21.63;;;11.68;;
65031;SDS011;51593;55.714;37.436;2022-08-30T08:18:38;19.25;;;11.30;;
65031;SDS011;51593;55.714;37.436;2022-08-30T08:21:04;18.50;;;11.57;;
65031;SDS011;51593;55.714;37.436;2022-08-30T08:23:36;20.52;;;11.15;;
65031;SDS011;51593;55.714;37.436;2022-08-30T08:26:01;18.63;;;11.23;;
65031;SDS011;51593;55.714;37.436;2022-08-30T08:28:28;20.00;;;10.77;;
65031;SDS011;51593;55.714;37.436;2022-08-30T08:30:54;21.55;;;10.98;;
65031;SDS011;51593;55.714;37.436;2022-08-30T08:33:22;18.00;;;10.93;;
65031;SDS011;51593;55.714;37.436;2022-08-30T08:35:48;23.10;;;10.55;;
65031;SDS011;51593;55.714;37.436;2022-08-30T08:38:14;17.00;;;10.95;;
65031;SDS011;51593;55.714;37.436;2022-08-30T08:43:47;22.08;;;11.80;;
65031;SDS011;51593;55.714;37.436;2022-08-30T08:49:06;20.23;;;11.52;;
65031;SDS011;51593;55.714;37.436;2022-08-30T08:51:33;23.48;;;11.85;;
65031;SDS011;51593;55.714;37.436;2022-08-30T08:54:40;19.10;;;11.75;;
65031;SDS011;51593;55.714;37.436;2022-08-30T08:57:09;23.65;;;12.82;;
65031;SDS011;51593;55.714;37.436;2022-08-30T08:59:36;27.77;;;11.80;;
65031;SDS011;51593;55.714;37.436;2022-08-30T09:02:15;21.30;;;12.27;;
65031;SDS011;51593;55.714;37.436;2022-08-30T09:04:43;23.40;;;12.38;;
65031;SDS011;51593;55.714;37.436;2022-08-30T09:07:31;19.25;;;12.02;;
65031;SDS011;51593;55.714;37.436;2022-08-30T09:10:01;20.48;;;12.38;;
65031;SDS011;51593;55.714;37.436;2022-08-30T09:12:29;20.73;;;12.48;;
65031;SDS011;51593;55.714;37.436;2022-08-30T09:15:03;21.35;;;12.43;;
65031;SDS011;51593;55.714;37.436;2022-08-30T09:17:47;19.00;;;12.13;;
65031;SDS011;51593;55.714;37.436;2022-08-30T09:20:23;22.07;;;13.40;;
65031;SDS011;51593;55.714;37.436;2022-08-30T09:23:26;24.77;;;13.95;;
65031;SDS011;51593;55.714;37.436;2022-08-30T09:26:12;22.38;;;14.68;;
65031;SDS011;51593;55.714;37.436;2022-08-30T09:28:49;22.65;;;15.68;;
65031;SDS011;51593;55.714;37.436;2022-08-30T09:31:17;25.45;;;14.63;;
65031;SDS011;51593;55.714;37.436;2022-08-30T09:33:53;24.70;;;15.52;;
65031;SDS011;51593;55.714;37.436;2022-08-30T09:36:38;24.20;;;14.75;;
65031;SDS011;51593;55.714;37.436;2022-08-30T09:39:16;21.25;;;14.20;;
65031;SDS011;51593;55.714;37.436;2022-08-30T09:41:44;24.73;;;13.90;;
65031;SDS011;51593;55.714;37.436;2022-08-30T09:44:18;21.38;;;14.25;;
65031;SDS011;51593;55.714;37.436;2022-08-30T09:46:47;20.25;;;14.50;;
65031;SDS011;51593;55.714;37.436;2022-08-30T09:49:27;25.63;;;14.57;;
65031;SDS011;51593;55.714;37.436;2022-08-30T09:52:19;24.58;;;14.50;;
65031;SDS011;51593;55.714;37.436;2022-08-30T09:58:03;24.83;;;14.55;;
65031;SDS011;51593;55.714;37.436;2022-08-30T10:00:54;21.15;;;14.30;;
65031;SDS011;51593;55.714;37.436;2022-08-30T10:06:40;26.15;;;14.90;;
65031;SDS011;51593;55.714;37.436;2022-08-30T10:12:04;19.77;;;14.52;;
65031;SDS011;51593;55.714;37.436;2022-08-30T10:14:56;26.42;;;14.95;;
65031;SDS011;51593;55.714;37.436;2022-08-30T10:17:55;24.33;;;15.32;;
65031;SDS011;51593;55.714;37.436;2022-08-30T10:23:25;24.42;;;15.23;;
65031;SDS011;51593;55.714;37.436;2022-08-30T10:25:55;27.35;;;15.07;;
65031;SDS011;51593;55.714;37.436;2022-08-30T10:28:45;23.65;;;15.00;;
65031;SDS011;51593;55.714;37.436;2022-08-30T10:34:02;23.35;;;15.27;;
65031;SDS011;51593;55.714;37.436;2022-08-30T10:36:42;21.70;;;14.73;;
65031;SDS011;51593;55.714;37.436;2022-08-30T10:39:16;25.25;;;14.95;;
65031;SDS011;51593;55.714;37.436;2022-08-30T10:41:45;23.98;;;14.90;;
65031;SDS011;51593;55.714;37.436;2022-08-30T10:44:19;26.30;;;14.43;;
65031;SDS011;51593;55.714;37.436;2022-08-30T10:49:45;25.45;;;14.68;;
65031;SDS011;51593;55.714;37.436;2022-08-30T10:55:14;24.30;;;14.80;;
65031;SDS011;51593;55.714;37.436;2022-08-30T10:57:42;26.75;;;14.38;;
65031;SDS011;51593;55.714;37.436;2022-08-30T11:00:10;25.63;;;14.77;;
65031;SDS011;51593;55.714;37.436;2022-08-30T11:14:01;23.92;;;13.20;;
65031;SDS011;51593;55.714;37.436;2022-08-30T11:16:35;26.95;;;13.43;;
65031;SDS011;51593;55.714;37.436;2022-08-30T11:19:02;22.48;;;13.23;;
65031;SDS011;51593;55.714;37.436;2022-08-30T11:21:41;21.85;;;12.85;;
65031;SDS011;51593;55.714;37.436;2022-08-30T11:24:12;26.92;;;14.85;;
65031;SDS011;51593;55.714;37.436;2022-08-30T11:42:46;24.08;;;14.60;;
65031;SDS011;51593;55.714;37.436;2022-08-30T11:50:18;25.15;;;14.98;;
65031;SDS011;51593;55.714;37.436;2022-08-30T11:52:53;24.42;;;14.82;;
65031;SDS011;51593;55.714;37.436;2022-08-30T11:55:24;24.75;;;15.10;;
65031;SDS011;51593;55.714;37.436;2022-08-30T12:00:43;21.35;;;14.05;;
65031;SDS011;51593;55.714;37.436;2022-08-30T12:10:52;22.33;;;13.88;;
65031;SDS011;51593;55.714;37.436;2022-08-30T12:18:41;24.63;;;13.45;;
65031;SDS011;51593;55.714;37.436;2022-08-30T12:21:22;21.30;;;12.38;;
65031;SDS011;51593;55.714;37.436;2022-08-30T12:26:33;20.80;;;11.68;;
65031;SDS011;51593;55.714;37.436;2022-08-30T12:29:07;22.40;;;12.55;;
65031;SDS011;51593;55.714;37.436;2022-08-30T12:31:37;22.33;;;13.13;;
65031;SDS011;51593;55.714;37.436;2022-08-30T12:34:14;19.55;;;10.85;;
65031;SDS011;51593;55.714;37.436;2022-08-30T12:37:08;25.38;;;11.63;;
65031;SDS011;51593;55.714;37.436;2022-08-30T12:39:41;22.17;;;10.43;;
65031;SDS011;51593;55.714;37.436;2022-08-30T12:42:23;20.50;;;10.07;;
65031;SDS011;51593;55.714;37.436;2022-08-30T12:44:57;19.40;;;9.73;;
65031;SDS011;51593;55.714;37.436;2022-08-30T12:47:28;20.20;;;9.65;;
65031;SDS011;51593;55.714;37.436;2022-08-30T12:50:07;18.23;;;10.50;;
65031;SDS011;51593;55.714;37.436;2022-08-30T12:52:35;24.55;;;10.07;;
65031;SDS011;51593;55.714;37.436;2022-08-30T12:57:53;17.55;;;9.50;;
65031;SDS011;51593;55.714;37.436;2022-08-30T13:00:32;21.65;;;9.13;;
65031;SDS011;51593;55.714;37.436;2022-08-30T13:05:54;23.20;;;9.70;;
65031;SDS011;51593;55.714;37.436;2022-08-30T13:16:32;20.00;;;8.63;;
65031;SDS011;51593;55.714;37.436;2022-08-30T13:21:54;22.98;;;9.18;;
65031;SDS011;51593;55.714;37.436;2022-08-30T13:24:21;17.25;;;8.98;;
65031;SDS011;51593;55.714;37.436;2022-08-30T13:26:47;16.50;;;9.32;;
65031;SDS011;51593;55.714;37.436;2022-08-30T13:29:15;19.80;;;9.68;;
65031;SDS011;51593;55.714;37.436;2022-08-30T13:31:51;13.32;;;9.00;;
65031;SDS011;51593;55.714;37.436;2022-08-30T13:34:17;19.17;;;9.32;;
65031;SDS011;51593;55.714;37.436;2022-08-30T13:36:48;21.42;;;9.95;;
65031;SDS011;51593;55.714;37.436;2022-08-30T13:39:16;19.35;;;9.50;;
65031;SDS011;51593;55.714;37.436;2022-08-30T13:41:42;23.38;;;9.70;;
65031;SDS011;51593;55.714;37.436;2022-08-30T13:44:08;17.25;;;9.30;;
65031;SDS011;51593;55.714;37.436;2022-08-30T13:46:34;21.33;;;8.63;;
65031;SDS011;51593;55.714;37.436;2022-08-30T13:49:02;15.43;;;8.27;;
65031;SDS011;51593;55.714;37.436;2022-08-30T13:51:32;16.02;;;8.55;;
65031;SDS011;51593;55.714;37.436;2022-08-30T13:53:58;18.15;;;8.35;;
65031;SDS011;51593;55.714;37.436;2022-08-30T13:56:27;17.63;;;8.10;;
65031;SDS011;51593;55.714;37.436;2022-08-30T13:58:57;14.73;;;7.90;;
65031;SDS011;51593;55.714;37.436;2022-08-30T14:01:23;21.35;;;8.20;;
65031;SDS011;51593;55.714;37.436;2022-08-30T14:03:49;16.35;;;7.32;;
65031;SDS011;51593;55.714;37.436;2022-08-30T14:06:21;17.08;;;7.40;;
65031;SDS011;51593;55.714;37.436;2022-08-30T14:08:47;20.90;;;7.57;;
65031;SDS011;51593;55.714;37.436;2022-08-30T14:11:14;19.63;;;7.53;;
65031;SDS011;51593;55.714;37.436;2022-08-30T14:13:44;14.18;;;6.28;;
65031;SDS011;51593;55.714;37.436;2022-08-30T14:16:11;23.23;;;6.75;;
65031;SDS011;51593;55.714;37.436;2022-08-30T14:18:37;18.75;;;6.75;;
65031;SDS011;51593;55.714;37.436;2022-08-30T14:21:03;23.13;;;6.60;;
65031;SDS011;51593;55.714;37.436;2022-08-30T14:23:28;20.63;;;6.65;;
65031;SDS011;51593;55.714;37.436;2022-08-30T14:25:55;15.90;;;5.97;;
65031;SDS011;51593;55.714;37.436;2022-08-30T14:28:21;17.85;;;6.07;;
65031;SDS011;51593;55.714;37.436;2022-08-30T14:30:47;21.85;;;6.03;;
65031;SDS011;51593;55.714;37.436;2022-08-30T14:33:13;12.10;;;5.00;;
65031;SDS011;51593;55.714;37.436;2022-08-30T14:35:40;22.23;;;5.85;;
65031;SDS011;51593;55.714;37.436;2022-08-30T14:38:05;22.67;;;5.57;;
65031;SDS011;51593;55.714;37.436;2022-08-30T14:40:32;19.98;;;5.75;;
65031;SDS011;51593;55.714;37.436;2022-08-30T14:42:58;18.38;;;5.05;;
65031;SDS011;51593;55.714;37.436;2022-08-30T14:45:24;19.35;;;5.65;;
65031;SDS011;51593;55.714;37.436;2022-08-30T14:47:50;19.77;;;5.20;;
65031;SDS011;51593;55.714;37.436;2022-08-30T14:50:15;22.10;;;5.50;;
65031;SDS011;51593;55.714;37.436;2022-08-30T14:52:41;16.90;;;5.70;;
65031;SDS011;51593;55.714;37.436;2022-08-30T14:55:08;21.40;;;5.63;;
65031;SDS011;51593;55.714;37.436;2022-08-30T14:57:38;18.08;;;5.72;;
65031;SDS011;51593;55.714;37.436;2022-08-30T15:00:05;19.08;;;6.00;;
65031;SDS011;51593;55.714;37.436;2022-08-30T15:02:33;25.35;;;7.32;;
65031;SDS011;51593;55.714;37.436;2022-08-30T15:04:58;18.77;;;6.70;;
65031;SDS011;51593;55.714;37.436;2022-08-30T15:07:24;24.30;;;6.18;;
65031;SDS011;51593;55.714;37.436;2022-08-30T15:09:52;19.15;;;6.28;;
65031;SDS011;51593;55.714;37.436;2022-08-30T15:12:18;21.73;;;6.88;;
65031;SDS011;51593;55.714;37.436;2022-08-30T15:14:44;22.25;;;6.47;;
65031;SDS011;51593;55.714;37.436;2022-08-30T15:17:10;27.73;;;6.75;;
65031;SDS011;51593;55.714;37.436;2022-08-30T15:19:37;27.90;;;7.05;;
65031;SDS011;51593;55.714;37.436;2022-08-30T15:22:04;22.70;;;6.30;;
65031;SDS011;51593;55.714;37.436;2022-08-30T15:24:30;20.10;;;6.20;;
65031;SDS011;51593;55.714;37.436;2022-08-30T15:26:57;17.55;;;5.93;;
65031;SDS011;51593;55.714;37.436;2022-08-30T15:29:24;20.70;;;6.68;;
65031;SDS011;51593;55.714;37.436;2022-08-30T15:31:50;29.00;;;6.53;;
65031;SDS011;51593;55.714;37.436;2022-08-30T15:34:16;19.98;;;6.70;;
65031;SDS011;51593;55.714;37.436;2022-08-30T15:36:44;25.45;;;7.00;;
65031;SDS011;51593;55.714;37.436;2022-08-30T15:39:11;24.48;;;6.85;;
65031;SDS011;51593;55.714;37.436;2022-08-30T15:41:38;23.17;;;6.68;;
65031;SDS011;51593;55.714;37.436;2022-08-30T15:44:04;26.75;;;7.53;;
65031;SDS011;51593;55.714;37.436;2022-08-30T15:46:33;24.45;;;6.82;;
65031;SDS011;51593;55.714;37.436;2022-08-30T15:49:18;20.50;;;6.25;;
65031;SDS011;51593;55.714;37.436;2022-08-30T15:51:48;19.33;;;5.43;;
65031;SDS011;51593;55.714;37.436;2022-08-30T15:54:16;24.15;;;6.47;;
65031;SDS011;51593;55.714;37.436;2022-08-30T15:56:44;19.63;;;6.30;;
65031;SDS011;51593;55.714;37.436;2022-08-30T15:59:14;21.77;;;6.53;;
65031;SDS011;51593;55.714;37.436;2022-08-30T16:01:42;20.65;;;6.45;;
65031;SDS011;51593;55.714;37.436;2022-08-30T16:04:11;20.83;;;6.10;;